sensor_id;sensor_type;location;lat;lon;timestamp;temperature;humidity
6206;DHT22;3136;48.788;9.772;2024-01-15T00:01:16;-3.10;1.00
6206;DHT22;3136;48.788;9.772;2024-01-15T00:03:42;-3.10;1.00
6206;DHT22;3136;48.788;9.772;2024-01-15T00:06:07;-3.10;1.00
6206;DHT22;3136;48.788;9.772;2024-01-15T00:08:33;-3.00;1.00
6206;DHT22;3136;48.788;9.772;2024-01-15T00:10:58;-3.00;1.00
6206;DHT22;3136;48.788;9.772;2024-01-15T00:13:24;-3.10;1.00
6206;DHT22;3136;48.788;9.772;2024-01-15T00:15:50;-1.80;1.00
6206;DHT22;3136;48.788;9.772;2024-01-15T00:18:15;-3.10;1.00
6206;DHT22;3136;48.788;9.772;2024-01-15T00:20:41;-3.10;1.00
6206;DHT22;3136;48.788;9.772;2024-01-15T00:23:06;-4.10;1.00
6206;DHT22;3136;48.788;9.772;2024-01-15T00:25:32;-3.00;1.00
6206;DHT22;3136;48.788;9.772;2024-01-15T00:27:58;-3.00;1.00
6206;DHT22;3136;48.788;9.772;2024-01-15T00:30:23;-3.00;1.00
6206;DHT22;3136;48.788;9.772;2024-01-15T00:32:49;-3.10;1.00
6206;DHT22;3136;48.788;9.772;2024-01-15T00:35:14;-3.10;1.00
6206;DHT22;3136;48.788;9.772;2024-01-15T00:37:40;-3.10;1.00
6206;DHT22;3136;48.788;9.772;2024-01-15T00:40:06;-3.20;1.00
6206;DHT22;3136;48.788;9.772;2024-01-15T00:42:33;-3.20;1.00
6206;DHT22;3136;48.788;9.772;2024-01-15T00:44:59;-3.30;1.00
6206;DHT22;3136;48.788;9.772;2024-01-15T00:47:24;-3.30;1.00
6206;DHT22;3136;48.788;9.772;2024-01-15T00:49:50;-3.40;1.00
6206;DHT22;3136;48.788;9.772;2024-01-15T00:52:15;-3.40;1.00
6206;DHT22;3136;48.788;9.772;2024-01-15T00:54:41;-3.40;1.00
6206;DHT22;3136;48.788;9.772;2024-01-15T00:57:06;-3.40;84.80
6206;DHT22;3136;48.788;9.772;2024-01-15T00:59:32;-3.40;46.50
6206;DHT22;3136;48.788;9.772;2024-01-15T01:01:57;-3.30;20.40
6206;DHT22;3136;48.788;9.772;2024-01-15T01:04:23;-3.30;56.90
6206;DHT22;3136;48.788;9.772;2024-01-15T01:06:49;-3.30;18.60
6206;DHT22;3136;48.788;9.772;2024-01-15T01:09:14;-3.30;1.00
6206;DHT22;3136;48.788;9.772;2024-01-15T01:11:40;-3.30;1.00
6206;DHT22;3136;48.788;9.772;2024-01-15T01:14:06;-3.40;23.00
6206;DHT22;3136;48.788;9.772;2024-01-15T01:16:31;-3.40;62.10
6206;DHT22;3136;48.788;9.772;2024-01-15T01:19:04;-3.40;60.90
6206;DHT22;3136;48.788;9.772;2024-01-15T01:21:30;-3.40;52.70
6206;DHT22;3136;48.788;9.772;2024-01-15T01:23:56;-3.50;80.00
6206;DHT22;3136;48.788;9.772;2024-01-15T01:26:21;-3.60;99.90
6206;DHT22;3136;48.788;9.772;2024-01-15T01:28:47;-3.60;99.90
6206;DHT22;3136;48.788;9.772;2024-01-15T01:31:12;-3.60;99.90
6206;DHT22;3136;48.788;9.772;2024-01-15T01:33:39;-3.60;99.90
6206;DHT22;3136;48.788;9.772;2024-01-15T01:36:09;-3.60;99.90
6206;DHT22;3136;48.788;9.772;2024-01-15T01:38:35;-3.70;99.90
6206;DHT22;3136;48.788;9.772;2024-01-15T01:41:01;-3.70;99.90
6206;DHT22;3136;48.788;9.772;2024-01-15T01:43:27;-3.60;1.00
6206;DHT22;3136;48.788;9.772;2024-01-15T01:45:52;-3.60;1.00
6206;DHT22;3136;48.788;9.772;2024-01-15T01:48:19;-3.60;1.00
6206;DHT22;3136;48.788;9.772;2024-01-15T01:50:45;-3.50;1.00
6206;DHT22;3136;48.788;9.772;2024-01-15T01:53:10;-3.50;1.00
6206;DHT22;3136;48.788;9.772;2024-01-15T01:55:37;-3.50;1.00
6206;DHT22;3136;48.788;9.772;2024-01-15T01:58:04;-3.50;1.00
6206;DHT22;3136;48.788;9.772;2024-01-15T02:00:30;-3.40;1.00
6206;DHT22;3136;48.788;9.772;2024-01-15T02:02:57;-3.40;1.00
6206;DHT22;3136;48.788;9.772;2024-01-15T02:05:23;-3.30;1.00
6206;DHT22;3136;48.788;9.772;2024-01-15T02:07:48;-3.20;1.00
6206;DHT22;3136;48.788;9.772;2024-01-15T02:10:14;-3.20;1.00
6206;DHT22;3136;48.788;9.772;2024-01-15T02:12:40;-3.10;1.00
6206;DHT22;3136;48.788;9.772;2024-01-15T02:15:06;-3.00;1.00
6206;DHT22;3136;48.788;9.772;2024-01-15T02:17:32;-3.00;1.00
6206;DHT22;3136;48.788;9.772;2024-01-15T02:19:57;-2.30;99.90
6206;DHT22;3136;48.788;9.772;2024-01-15T02:22:23;-2.80;99.90
6206;DHT22;3136;48.788;9.772;2024-01-15T02:24:48;-2.70;99.90
6206;DHT22;3136;48.788;9.772;2024-01-15T02:27:14;-2.70;99.90
6206;DHT22;3136;48.788;9.772;2024-01-15T02:29:40;-2.70;99.90
6206;DHT22;3136;48.788;9.772;2024-01-15T02:32:06;-2.60;17.90
6206;DHT22;3136;48.788;9.772;2024-01-15T02:34:32;-2.50;1.00
6206;DHT22;3136;48.788;9.772;2024-01-15T02:36:58;-2.50;1.00
6206;DHT22;3136;48.788;9.772;2024-01-15T02:39:23;-2.50;1.00
6206;DHT22;3136;48.788;9.772;2024-01-15T02:41:49;-2.40;1.00
6206;DHT22;3136;48.788;9.772;2024-01-15T02:44:14;-2.40;1.00
6206;DHT22;3136;48.788;9.772;2024-01-15T02:46:40;-2.40;1.00
6206;DHT22;3136;48.788;9.772;2024-01-15T02:49:06;-2.20;1.00
6206;DHT22;3136;48.788;9.772;2024-01-15T02:51:31;-2.20;1.00
6206;DHT22;3136;48.788;9.772;2024-01-15T02:53:57;-2.10;1.00
6206;DHT22;3136;48.788;9.772;2024-01-15T02:56:22;-2.00;1.00
6206;DHT22;3136;48.788;9.772;2024-01-15T02:58:48;-2.00;1.00
6206;DHT22;3136;48.788;9.772;2024-01-15T03:01:13;-1.90;1.00
6206;DHT22;3136;48.788;9.772;2024-01-15T03:03:40;-1.90;1.00
6206;DHT22;3136;48.788;9.772;2024-01-15T03:06:05;-1.90;1.00
6206;DHT22;3136;48.788;9.772;2024-01-15T03:08:31;-1.90;1.00
6206;DHT22;3136;48.788;9.772;2024-01-15T03:10:57;-1.90;1.00
6206;DHT22;3136;48.788;9.772;2024-01-15T03:13:22;-1.80;1.00
6206;DHT22;3136;48.788;9.772;2024-01-15T03:15:48;-1.70;1.00
6206;DHT22;3136;48.788;9.772;2024-01-15T03:18:13;-1.80;1.00
6206;DHT22;3136;48.788;9.772;2024-01-15T03:20:39;-1.70;1.00
6206;DHT22;3136;48.788;9.772;2024-01-15T03:23:05;-1.70;1.00
6206;DHT22;3136;48.788;9.772;2024-01-15T03:25:30;-1.70;1.00
6206;DHT22;3136;48.788;9.772;2024-01-15T03:27:56;-1.70;1.00
6206;DHT22;3136;48.788;9.772;2024-01-15T03:30:21;-1.70;1.00
6206;DHT22;3136;48.788;9.772;2024-01-15T03:32:47;-1.70;1.00
6206;DHT22;3136;48.788;9.772;2024-01-15T03:35:13;-1.70;1.00
6206;DHT22;3136;48.788;9.772;2024-01-15T03:37:38;-1.70;1.00
6206;DHT22;3136;48.788;9.772;2024-01-15T03:40:04;-1.70;1.00
6206;DHT22;3136;48.788;9.772;2024-01-15T03:42:30;-1.70;1.00
6206;DHT22;3136;48.788;9.772;2024-01-15T03:44:55;-1.70;1.00
6206;DHT22;3136;48.788;9.772;2024-01-15T03:47:21;-1.70;1.00
6206;DHT22;3136;48.788;9.772;2024-01-15T03:49:46;-1.70;1.00
6206;DHT22;3136;48.788;9.772;2024-01-15T03:52:12;-1.70;1.00
6206;DHT22;3136;48.788;9.772;2024-01-15T03:54:37;-1.70;1.00
6206;DHT22;3136;48.788;9.772;2024-01-15T03:57:04;-1.70;1.00
6206;DHT22;3136;48.788;9.772;2024-01-15T03:59:29;-1.60;1.00
6206;DHT22;3136;48.788;9.772;2024-01-15T04:01:55;-1.50;1.00
6206;DHT22;3136;48.788;9.772;2024-01-15T04:04:21;-1.40;1.00
6206;DHT22;3136;48.788;9.772;2024-01-15T04:06:46;-1.40;1.00
6206;DHT22;3136;48.788;9.772;2024-01-15T04:09:12;-1.30;1.00
6206;DHT22;3136;48.788;9.772;2024-01-15T04:11:38;-1.40;1.00
6206;DHT22;3136;48.788;9.772;2024-01-15T04:14:05;-1.40;1.00
6206;DHT22;3136;48.788;9.772;2024-01-15T04:16:30;-1.40;1.00
6206;DHT22;3136;48.788;9.772;2024-01-15T04:18:56;-1.30;1.00
6206;DHT22;3136;48.788;9.772;2024-01-15T04:21:21;-1.30;1.00
6206;DHT22;3136;48.788;9.772;2024-01-15T04:23:47;-1.20;99.90
6206;DHT22;3136;48.788;9.772;2024-01-15T04:26:12;-1.20;99.90
6206;DHT22;3136;48.788;9.772;2024-01-15T04:28:38;-1.20;99.90
6206;DHT22;3136;48.788;9.772;2024-01-15T04:31:03;-1.30;99.90
6206;DHT22;3136;48.788;9.772;2024-01-15T04:33:29;-1.30;99.90
6206;DHT22;3136;48.788;9.772;2024-01-15T04:35:54;-1.20;99.90
6206;DHT22;3136;48.788;9.772;2024-01-15T04:38:20;-1.20;99.90
6206;DHT22;3136;48.788;9.772;2024-01-15T04:40:46;-1.20;99.90
6206;DHT22;3136;48.788;9.772;2024-01-15T04:43:11;-1.10;99.90
6206;DHT22;3136;48.788;9.772;2024-01-15T04:45:37;-1.10;99.90
6206;DHT22;3136;48.788;9.772;2024-01-15T04:48:02;-1.10;99.90
6206;DHT22;3136;48.788;9.772;2024-01-15T04:50:28;-1.20;99.90
6206;DHT22;3136;48.788;9.772;2024-01-15T04:52:54;-1.20;99.90
6206;DHT22;3136;48.788;9.772;2024-01-15T04:55:19;-1.20;99.90
6206;DHT22;3136;48.788;9.772;2024-01-15T04:57:45;-1.20;99.90
6206;DHT22;3136;48.788;9.772;2024-01-15T05:00:11;-1.10;99.90
6206;DHT22;3136;48.788;9.772;2024-01-15T05:02:37;-1.10;99.90
6206;DHT22;3136;48.788;9.772;2024-01-15T05:05:03;-1.10;99.90
6206;DHT22;3136;48.788;9.772;2024-01-15T05:07:28;-1.10;99.90
6206;DHT22;3136;48.788;9.772;2024-01-15T05:09:54;-1.10;99.90
6206;DHT22;3136;48.788;9.772;2024-01-15T05:12:19;-1.20;99.90
6206;DHT22;3136;48.788;9.772;2024-01-15T05:14:45;-1.10;99.90
6206;DHT22;3136;48.788;9.772;2024-01-15T05:17:11;-1.10;99.90
6206;DHT22;3136;48.788;9.772;2024-01-15T05:19:36;-1.10;99.90
6206;DHT22;3136;48.788;9.772;2024-01-15T05:22:02;-1.10;99.90
6206;DHT22;3136;48.788;9.772;2024-01-15T05:24:27;-1.00;99.90
6206;DHT22;3136;48.788;9.772;2024-01-15T05:26:53;-1.00;99.90
6206;DHT22;3136;48.788;9.772;2024-01-15T05:29:18;-1.00;99.90
6206;DHT22;3136;48.788;9.772;2024-01-15T05:31:44;-1.10;99.90
6206;DHT22;3136;48.788;9.772;2024-01-15T05:34:09;-1.10;99.90
6206;DHT22;3136;48.788;9.772;2024-01-15T05:36:35;-1.10;99.90
6206;DHT22;3136;48.788;9.772;2024-01-15T05:39:00;-1.20;99.90
6206;DHT22;3136;48.788;9.772;2024-01-15T05:41:26;-1.10;99.90
6206;DHT22;3136;48.788;9.772;2024-01-15T05:43:52;-1.20;1.00
6206;DHT22;3136;48.788;9.772;2024-01-15T05:46:17;-1.20;1.00
6206;DHT22;3136;48.788;9.772;2024-01-15T05:48:43;-1.10;99.90
6206;DHT22;3136;48.788;9.772;2024-01-15T05:51:08;-1.00;99.90
6206;DHT22;3136;48.788;9.772;2024-01-15T05:53:34;-1.00;99.90
6206;DHT22;3136;48.788;9.772;2024-01-15T05:55:59;-1.00;99.90
6206;DHT22;3136;48.788;9.772;2024-01-15T05:58:26;-1.00;99.90
6206;DHT22;3136;48.788;9.772;2024-01-15T06:00:52;-1.00;99.90
6206;DHT22;3136;48.788;9.772;2024-01-15T06:03:17;-1.10;99.90
6206;DHT22;3136;48.788;9.772;2024-01-15T06:05:43;-1.00;99.90
6206;DHT22;3136;48.788;9.772;2024-01-15T06:08:09;-1.00;99.90
6206;DHT22;3136;48.788;9.772;2024-01-15T06:10:34;-0.90;99.90
6206;DHT22;3136;48.788;9.772;2024-01-15T06:13:01;-0.90;99.90
6206;DHT22;3136;48.788;9.772;2024-01-15T06:15:26;-0.90;99.90
6206;DHT22;3136;48.788;9.772;2024-01-15T06:17:52;-1.00;99.90
6206;DHT22;3136;48.788;9.772;2024-01-15T06:20:17;-1.00;99.90
6206;DHT22;3136;48.788;9.772;2024-01-15T06:22:43;-1.00;99.90
6206;DHT22;3136;48.788;9.772;2024-01-15T06:25:09;-1.10;99.90
6206;DHT22;3136;48.788;9.772;2024-01-15T06:27:34;-1.10;99.90
6206;DHT22;3136;48.788;9.772;2024-01-15T06:30:00;-1.10;99.90
6206;DHT22;3136;48.788;9.772;2024-01-15T06:32:25;-1.10;99.90
6206;DHT22;3136;48.788;9.772;2024-01-15T06:34:51;-1.00;99.90
6206;DHT22;3136;48.788;9.772;2024-01-15T06:37:16;-1.10;1.00
6206;DHT22;3136;48.788;9.772;2024-01-15T06:39:44;-1.20;1.00
6206;DHT22;3136;48.788;9.772;2024-01-15T06:42:09;-1.20;1.00
6206;DHT22;3136;48.788;9.772;2024-01-15T06:44:35;-1.10;1.00
6206;DHT22;3136;48.788;9.772;2024-01-15T06:47:00;-1.20;1.00
6206;DHT22;3136;48.788;9.772;2024-01-15T06:49:28;-1.20;1.00
6206;DHT22;3136;48.788;9.772;2024-01-15T06:51:55;-1.10;1.00
6206;DHT22;3136;48.788;9.772;2024-01-15T06:54:20;-1.00;1.00
6206;DHT22;3136;48.788;9.772;2024-01-15T06:56:46;-0.90;1.00
6206;DHT22;3136;48.788;9.772;2024-01-15T06:59:11;-0.80;1.00
6206;DHT22;3136;48.788;9.772;2024-01-15T07:01:37;-0.80;1.00
6206;DHT22;3136;48.788;9.772;2024-01-15T07:04:02;-0.80;1.00
6206;DHT22;3136;48.788;9.772;2024-01-15T07:06:28;-0.80;1.00
6206;DHT22;3136;48.788;9.772;2024-01-15T07:08:56;-0.80;1.00
6206;DHT22;3136;48.788;9.772;2024-01-15T07:11:21;-0.80;1.00
6206;DHT22;3136;48.788;9.772;2024-01-15T07:13:47;-0.80;1.00
6206;DHT22;3136;48.788;9.772;2024-01-15T07:16:12;-0.70;1.00
6206;DHT22;3136;48.788;9.772;2024-01-15T07:18:38;-0.80;1.00
6206;DHT22;3136;48.788;9.772;2024-01-15T07:21:04;-0.70;1.00
6206;DHT22;3136;48.788;9.772;2024-01-15T07:23:31;-0.70;1.00
6206;DHT22;3136;48.788;9.772;2024-01-15T07:25:56;-0.70;99.90
6206;DHT22;3136;48.788;9.772;2024-01-15T07:28:22;-0.70;99.90
6206;DHT22;3136;48.788;9.772;2024-01-15T07:30:48;-0.70;1.00
6206;DHT22;3136;48.788;9.772;2024-01-15T07:33:13;-0.70;1.00
6206;DHT22;3136;48.788;9.772;2024-01-15T07:35:39;-0.80;1.00
6206;DHT22;3136;48.788;9.772;2024-01-15T07:38:04;-0.70;1.00
6206;DHT22;3136;48.788;9.772;2024-01-15T07:40:30;-0.60;1.00
6206;DHT22;3136;48.788;9.772;2024-01-15T07:42:56;-0.60;1.00
6206;DHT22;3136;48.788;9.772;2024-01-15T07:45:21;-0.60;1.00
6206;DHT22;3136;48.788;9.772;2024-01-15T07:47:47;-0.60;99.90
6206;DHT22;3136;48.788;9.772;2024-01-15T07:50:13;-0.50;99.90
6206;DHT22;3136;48.788;9.772;2024-01-15T07:52:40;-0.50;99.90
6206;DHT22;3136;48.788;9.772;2024-01-15T07:55:07;-0.50;99.90
6206;DHT22;3136;48.788;9.772;2024-01-15T07:57:33;-0.30;99.90
6206;DHT22;3136;48.788;9.772;2024-01-15T07:59:58;-0.40;99.90
6206;DHT22;3136;48.788;9.772;2024-01-15T08:02:24;-0.40;99.90
6206;DHT22;3136;48.788;9.772;2024-01-15T08:04:50;-0.40;99.90
6206;DHT22;3136;48.788;9.772;2024-01-15T08:07:15;-0.40;99.90
6206;DHT22;3136;48.788;9.772;2024-01-15T08:09:41;-0.40;99.90
6206;DHT22;3136;48.788;9.772;2024-01-15T08:12:07;-0.30;99.90
6206;DHT22;3136;48.788;9.772;2024-01-15T08:14:33;-1.20;99.90
6206;DHT22;3136;48.788;9.772;2024-01-15T08:16:58;-0.30;99.90
6206;DHT22;3136;48.788;9.772;2024-01-15T08:19:24;-0.20;99.90
6206;DHT22;3136;48.788;9.772;2024-01-15T08:21:50;-0.20;99.90
6206;DHT22;3136;48.788;9.772;2024-01-15T08:24:15;-0.20;99.90
6206;DHT22;3136;48.788;9.772;2024-01-15T08:26:42;-0.10;99.90
6206;DHT22;3136;48.788;9.772;2024-01-15T08:29:07;-0.10;99.90
6206;DHT22;3136;48.788;9.772;2024-01-15T08:31:33;0.00;99.90
6206;DHT22;3136;48.788;9.772;2024-01-15T08:33:59;0.00;99.90
6206;DHT22;3136;48.788;9.772;2024-01-15T08:36:26;0.00;99.90
6206;DHT22;3136;48.788;9.772;2024-01-15T08:38:52;0.00;99.90
6206;DHT22;3136;48.788;9.772;2024-01-15T08:41:17;0.00;99.90
6206;DHT22;3136;48.788;9.772;2024-01-15T08:43:43;0.10;99.90
6206;DHT22;3136;48.788;9.772;2024-01-15T08:46:08;0.10;99.90
6206;DHT22;3136;48.788;9.772;2024-01-15T08:48:34;0.10;99.90
6206;DHT22;3136;48.788;9.772;2024-01-15T08:51:00;0.10;99.90
6206;DHT22;3136;48.788;9.772;2024-01-15T08:53:25;0.10;99.90
6206;DHT22;3136;48.788;9.772;2024-01-15T08:55:51;0.20;99.90
6206;DHT22;3136;48.788;9.772;2024-01-15T08:58:16;0.20;99.90
6206;DHT22;3136;48.788;9.772;2024-01-15T09:00:43;0.20;99.90
6206;DHT22;3136;48.788;9.772;2024-01-15T09:03:08;0.20;99.90
6206;DHT22;3136;48.788;9.772;2024-01-15T09:05:34;0.30;99.90
6206;DHT22;3136;48.788;9.772;2024-01-15T09:08:00;0.30;99.90
6206;DHT22;3136;48.788;9.772;2024-01-15T09:10:25;0.30;99.90
6206;DHT22;3136;48.788;9.772;2024-01-15T09:12:51;0.40;99.90
6206;DHT22;3136;48.788;9.772;2024-01-15T09:15:16;0.40;99.90
6206;DHT22;3136;48.788;9.772;2024-01-15T09:17:42;0.40;99.90
6206;DHT22;3136;48.788;9.772;2024-01-15T09:20:09;0.50;99.90
6206;DHT22;3136;48.788;9.772;2024-01-15T09:22:35;0.50;99.90
6206;DHT22;3136;48.788;9.772;2024-01-15T09:25:01;0.60;99.90
6206;DHT22;3136;48.788;9.772;2024-01-15T09:27:26;0.60;99.90
6206;DHT22;3136;48.788;9.772;2024-01-15T09:29:53;0.60;99.90
6206;DHT22;3136;48.788;9.772;2024-01-15T09:32:18;0.60;99.90
6206;DHT22;3136;48.788;9.772;2024-01-15T09:34:45;0.60;99.90
6206;DHT22;3136;48.788;9.772;2024-01-15T09:37:12;0.70;99.90
6206;DHT22;3136;48.788;9.772;2024-01-15T09:39:37;0.60;99.90
6206;DHT22;3136;48.788;9.772;2024-01-15T09:42:03;0.70;99.90
6206;DHT22;3136;48.788;9.772;2024-01-15T09:44:29;0.70;99.90
6206;DHT22;3136;48.788;9.772;2024-01-15T09:46:56;0.70;99.90
6206;DHT22;3136;48.788;9.772;2024-01-15T09:49:22;0.70;99.90
6206;DHT22;3136;48.788;9.772;2024-01-15T09:51:48;0.80;99.90
6206;DHT22;3136;48.788;9.772;2024-01-15T09:54:15;0.90;99.90
6206;DHT22;3136;48.788;9.772;2024-01-15T09:56:45;0.80;99.90
6206;DHT22;3136;48.788;9.772;2024-01-15T09:59:13;0.90;99.90
6206;DHT22;3136;48.788;9.772;2024-01-15T10:01:40;0.90;99.90
6206;DHT22;3136;48.788;9.772;2024-01-15T10:04:06;0.90;99.90
6206;DHT22;3136;48.788;9.772;2024-01-15T10:06:32;0.90;99.90
6206;DHT22;3136;48.788;9.772;2024-01-15T10:08:58;0.90;99.90
6206;DHT22;3136;48.788;9.772;2024-01-15T10:11:24;0.90;99.90
6206;DHT22;3136;48.788;9.772;2024-01-15T10:13:50;0.90;99.90
6206;DHT22;3136;48.788;9.772;2024-01-15T10:16:19;0.90;99.90
6206;DHT22;3136;48.788;9.772;2024-01-15T10:18:44;0.90;99.90
6206;DHT22;3136;48.788;9.772;2024-01-15T10:21:10;1.00;99.90
6206;DHT22;3136;48.788;9.772;2024-01-15T10:23:35;1.00;99.90
6206;DHT22;3136;48.788;9.772;2024-01-15T10:26:02;1.00;99.90
6206;DHT22;3136;48.788;9.772;2024-01-15T10:28:28;1.00;99.90
6206;DHT22;3136;48.788;9.772;2024-01-15T10:30:57;1.10;99.90
6206;DHT22;3136;48.788;9.772;2024-01-15T10:33:24;1.10;99.90
6206;DHT22;3136;48.788;9.772;2024-01-15T10:35:54;1.10;99.90
6206;DHT22;3136;48.788;9.772;2024-01-15T10:38:21;1.10;99.90
6206;DHT22;3136;48.788;9.772;2024-01-15T10:40:50;1.10;99.90
6206;DHT22;3136;48.788;9.772;2024-01-15T10:43:16;1.10;99.90
6206;DHT22;3136;48.788;9.772;2024-01-15T10:45:46;1.20;99.90
6206;DHT22;3136;48.788;9.772;2024-01-15T10:48:12;1.20;99.90
6206;DHT22;3136;48.788;9.772;2024-01-15T10:50:38;1.20;99.90
6206;DHT22;3136;48.788;9.772;2024-01-15T10:53:04;1.20;99.90
6206;DHT22;3136;48.788;9.772;2024-01-15T10:55:31;1.30;99.90
6206;DHT22;3136;48.788;9.772;2024-01-15T10:57:59;1.30;99.90
6206;DHT22;3136;48.788;9.772;2024-01-15T11:00:25;1.40;99.90
6206;DHT22;3136;48.788;9.772;2024-01-15T11:02:51;1.40;99.90
6206;DHT22;3136;48.788;9.772;2024-01-15T11:05:21;1.40;99.90
6206;DHT22;3136;48.788;9.772;2024-01-15T11:07:48;1.40;99.90
6206;DHT22;3136;48.788;9.772;2024-01-15T11:16:03;1.40;99.90
6206;DHT22;3136;48.788;9.772;2024-01-15T11:18:45;1.40;99.90
6206;DHT22;3136;48.788;9.772;2024-01-15T11:21:26;1.40;99.90
6206;DHT22;3136;48.788;9.772;2024-01-15T11:23:54;1.40;99.90
6206;DHT22;3136;48.788;9.772;2024-01-15T11:26:38;1.40;99.90
6206;DHT22;3136;48.788;9.772;2024-01-15T11:29:05;1.40;99.90
6206;DHT22;3136;48.788;9.772;2024-01-15T11:34:06;1.40;99.90
6206;DHT22;3136;48.788;9.772;2024-01-15T11:42:03;1.50;99.90
6206;DHT22;3136;48.788;9.772;2024-01-15T11:44:30;1.40;99.90
6206;DHT22;3136;48.788;9.772;2024-01-15T11:47:04;1.30;99.90
6206;DHT22;3136;48.788;9.772;2024-01-15T11:52:10;1.10;99.90
6206;DHT22;3136;48.788;9.772;2024-01-15T11:54:38;1.00;99.90
6206;DHT22;3136;48.788;9.772;2024-01-15T11:57:16;1.00;99.90
6206;DHT22;3136;48.788;9.772;2024-01-15T11:59:42;1.00;99.90
6206;DHT22;3136;48.788;9.772;2024-01-15T12:02:08;1.00;99.90
6206;DHT22;3136;48.788;9.772;2024-01-15T12:04:36;0.90;99.90
6206;DHT22;3136;48.788;9.772;2024-01-15T12:07:02;0.80;99.90
6206;DHT22;3136;48.788;9.772;2024-01-15T12:09:27;0.70;99.90
6206;DHT22;3136;48.788;9.772;2024-01-15T12:12:03;0.70;1.00
6206;DHT22;3136;48.788;9.772;2024-01-15T12:14:32;0.60;1.00
6206;DHT22;3136;48.788;9.772;2024-01-15T12:16:58;0.60;1.00
6206;DHT22;3136;48.788;9.772;2024-01-15T12:19:24;0.50;1.00
6206;DHT22;3136;48.788;9.772;2024-01-15T12:21:51;0.50;1.00
6206;DHT22;3136;48.788;9.772;2024-01-15T12:24:17;0.50;1.00
6206;DHT22;3136;48.788;9.772;2024-01-15T12:26:43;0.50;1.00
6206;DHT22;3136;48.788;9.772;2024-01-15T12:29:10;0.50;1.00
6206;DHT22;3136;48.788;9.772;2024-01-15T12:31:36;0.50;1.00
6206;DHT22;3136;48.788;9.772;2024-01-15T12:34:02;0.50;1.00
6206;DHT22;3136;48.788;9.772;2024-01-15T12:36:31;0.50;1.00
6206;DHT22;3136;48.788;9.772;2024-01-15T12:39:00;0.60;1.00
6206;DHT22;3136;48.788;9.772;2024-01-15T12:41:26;0.60;1.00
6206;DHT22;3136;48.788;9.772;2024-01-15T12:43:51;0.60;1.00
6206;DHT22;3136;48.788;9.772;2024-01-15T12:46:17;0.70;1.00
6206;DHT22;3136;48.788;9.772;2024-01-15T12:48:44;0.70;1.00
6206;DHT22;3136;48.788;9.772;2024-01-15T12:51:10;0.70;1.00
6206;DHT22;3136;48.788;9.772;2024-01-15T12:53:36;0.70;1.00
6206;DHT22;3136;48.788;9.772;2024-01-15T12:56:01;0.70;1.00
6206;DHT22;3136;48.788;9.772;2024-01-15T12:58:27;0.80;1.00
6206;DHT22;3136;48.788;9.772;2024-01-15T13:00:52;0.80;1.00
6206;DHT22;3136;48.788;9.772;2024-01-15T13:03:18;0.80;1.00
6206;DHT22;3136;48.788;9.772;2024-01-15T13:05:44;0.80;1.00
6206;DHT22;3136;48.788;9.772;2024-01-15T13:08:10;0.80;1.00
6206;DHT22;3136;48.788;9.772;2024-01-15T13:10:36;0.80;1.00
6206;DHT22;3136;48.788;9.772;2024-01-15T13:13:01;0.70;99.90
6206;DHT22;3136;48.788;9.772;2024-01-15T13:15:27;0.60;1.00
6206;DHT22;3136;48.788;9.772;2024-01-15T13:17:54;0.50;1.00
6206;DHT22;3136;48.788;9.772;2024-01-15T13:20:19;0.50;1.00
6206;DHT22;3136;48.788;9.772;2024-01-15T13:22:45;0.50;1.00
6206;DHT22;3136;48.788;9.772;2024-01-15T13:25:11;0.50;1.00
6206;DHT22;3136;48.788;9.772;2024-01-15T13:27:36;0.50;1.00
6206;DHT22;3136;48.788;9.772;2024-01-15T13:30:03;0.50;1.00
6206;DHT22;3136;48.788;9.772;2024-01-15T13:32:28;0.50;1.00
6206;DHT22;3136;48.788;9.772;2024-01-15T13:34:56;0.50;16.00
6206;DHT22;3136;48.788;9.772;2024-01-15T13:37:22;0.40;63.50
6206;DHT22;3136;48.788;9.772;2024-01-15T13:39:50;0.40;99.90
6206;DHT22;3136;48.788;9.772;2024-01-15T13:42:17;0.40;99.90
6206;DHT22;3136;48.788;9.772;2024-01-15T13:44:42;0.40;1.00
6206;DHT22;3136;48.788;9.772;2024-01-15T13:47:08;0.40;1.00
6206;DHT22;3136;48.788;9.772;2024-01-15T13:49:34;0.50;99.90
6206;DHT22;3136;48.788;9.772;2024-01-15T13:52:01;0.40;99.90
6206;DHT22;3136;48.788;9.772;2024-01-15T13:54:29;0.40;99.90
6206;DHT22;3136;48.788;9.772;2024-01-15T13:56:55;0.40;99.90
6206;DHT22;3136;48.788;9.772;2024-01-15T13:59:21;0.50;99.90
6206;DHT22;3136;48.788;9.772;2024-01-15T14:01:46;0.40;1.00
6206;DHT22;3136;48.788;9.772;2024-01-15T14:04:12;0.40;1.00
6206;DHT22;3136;48.788;9.772;2024-01-15T14:06:38;0.40;1.00
6206;DHT22;3136;48.788;9.772;2024-01-15T14:09:04;0.40;1.00
6206;DHT22;3136;48.788;9.772;2024-01-15T14:11:30;0.40;1.00
6206;DHT22;3136;48.788;9.772;2024-01-15T14:13:56;0.40;1.00
6206;DHT22;3136;48.788;9.772;2024-01-15T14:16:21;0.50;93.20
6206;DHT22;3136;48.788;9.772;2024-01-15T14:18:47;0.40;99.90
6206;DHT22;3136;48.788;9.772;2024-01-15T14:21:12;0.50;99.90
6206;DHT22;3136;48.788;9.772;2024-01-15T14:23:38;0.50;1.00
6206;DHT22;3136;48.788;9.772;2024-01-15T14:26:04;0.50;99.90
6206;DHT22;3136;48.788;9.772;2024-01-15T14:28:29;0.50;99.90
6206;DHT22;3136;48.788;9.772;2024-01-15T14:30:55;0.40;1.00
6206;DHT22;3136;48.788;9.772;2024-01-15T14:33:23;0.40;1.00
6206;DHT22;3136;48.788;9.772;2024-01-15T14:35:49;0.40;99.90
6206;DHT22;3136;48.788;9.772;2024-01-15T14:38:14;0.40;99.90
6206;DHT22;3136;48.788;9.772;2024-01-15T14:40:40;0.50;1.00
6206;DHT22;3136;48.788;9.772;2024-01-15T14:43:05;0.50;99.90
6206;DHT22;3136;48.788;9.772;2024-01-15T14:45:31;0.50;99.90
6206;DHT22;3136;48.788;9.772;2024-01-15T14:47:57;0.40;1.00
6206;DHT22;3136;48.788;9.772;2024-01-15T14:50:24;0.40;99.90
6206;DHT22;3136;48.788;9.772;2024-01-15T14:52:49;0.40;1.00
6206;DHT22;3136;48.788;9.772;2024-01-15T14:55:15;0.40;1.00
6206;DHT22;3136;48.788;9.772;2024-01-15T14:57:40;0.30;74.60
6206;DHT22;3136;48.788;9.772;2024-01-15T15:00:07;0.30;99.90
6206;DHT22;3136;48.788;9.772;2024-01-15T15:02:34;0.30;1.00
6206;DHT22;3136;48.788;9.772;2024-01-15T15:05:01;0.30;53.60
6206;DHT22;3136;48.788;9.772;2024-01-15T15:07:27;0.30;99.90
6206;DHT22;3136;48.788;9.772;2024-01-15T15:09:52;0.30;1.00
6206;DHT22;3136;48.788;9.772;2024-01-15T15:12:18;0.30;1.00
6206;DHT22;3136;48.788;9.772;2024-01-15T15:14:43;0.30;1.00
6206;DHT22;3136;48.788;9.772;2024-01-15T15:17:09;0.30;99.90
6206;DHT22;3136;48.788;9.772;2024-01-15T15:19:35;0.30;99.90
6206;DHT22;3136;48.788;9.772;2024-01-15T15:22:01;0.30;99.90
6206;DHT22;3136;48.788;9.772;2024-01-15T15:24:27;0.30;1.00
6206;DHT22;3136;48.788;9.772;2024-01-15T15:26:52;0.20;99.90
6206;DHT22;3136;48.788;9.772;2024-01-15T15:29:18;0.20;1.00
6206;DHT22;3136;48.788;9.772;2024-01-15T15:31:44;0.20;1.00
6206;DHT22;3136;48.788;9.772;2024-01-15T15:34:10;0.10;99.90
6206;DHT22;3136;48.788;9.772;2024-01-15T15:36:35;0.10;99.90
6206;DHT22;3136;48.788;9.772;2024-01-15T15:39:01;0.10;99.90
6206;DHT22;3136;48.788;9.772;2024-01-15T15:41:27;0.00;1.00
6206;DHT22;3136;48.788;9.772;2024-01-15T15:43:55;0.00;99.90
6206;DHT22;3136;48.788;9.772;2024-01-15T15:46:21;0.10;99.90
6206;DHT22;3136;48.788;9.772;2024-01-15T15:48:48;0.10;81.30
6206;DHT22;3136;48.788;9.772;2024-01-15T15:51:13;0.00;1.00
6206;DHT22;3136;48.788;9.772;2024-01-15T15:53:39;0.00;3.20
6206;DHT22;3136;48.788;9.772;2024-01-15T15:56:04;0.00;62.60
6206;DHT22;3136;48.788;9.772;2024-01-15T15:58:30;0.00;1.00
6206;DHT22;3136;48.788;9.772;2024-01-15T16:00:56;-0.10;1.00
6206;DHT22;3136;48.788;9.772;2024-01-15T16:03:21;-0.10;1.00
6206;DHT22;3136;48.788;9.772;2024-01-15T16:05:47;-0.20;99.90
6206;DHT22;3136;48.788;9.772;2024-01-15T16:08:12;-0.10;99.90
6206;DHT22;3136;48.788;9.772;2024-01-15T16:10:38;-0.20;1.00
6206;DHT22;3136;48.788;9.772;2024-01-15T16:13:04;-0.20;1.00
6206;DHT22;3136;48.788;9.772;2024-01-15T16:15:29;-0.20;1.00
6206;DHT22;3136;48.788;9.772;2024-01-15T16:17:55;-0.30;1.00
6206;DHT22;3136;48.788;9.772;2024-01-15T16:20:21;-0.30;1.00
6206;DHT22;3136;48.788;9.772;2024-01-15T16:22:46;-0.30;75.30
6206;DHT22;3136;48.788;9.772;2024-01-15T16:25:12;-0.30;1.00